Time,TemperatureF,DewpointF,PressureIn,WindDirection,WindDirectionDegrees,WindSpeedMPH,WindSpeedGustMPH,Humidity,HourlyPrecipIn,Conditions,Clouds,dailyrainin,SoftwareType,DateUTC
2013-03-16 00:02:00,30.0,25.0,29.87,ESE,107,3.0,10.0,82,0.00,,,0.02,,2013-03-16 04:02:00,
2013-03-16 00:13:00,30.0,25.0,29.87,ESE,107,3.0,10.0,82,0.00,,,0.02,,2013-03-16 04:13:00,
2013-03-16 00:23:00,29.0,25.0,29.87,East,89,6.0,12.0,86,0.00,,,0.02,,2013-03-16 04:23:00,
2013-03-16 00:33:00,28.0,25.0,29.87,East,80,8.0,13.0,88,0.00,,,0.02,,2013-03-16 04:33:00,
2013-03-16 00:43:00,28.0,25.0,29.87,East,80,8.0,13.0,88,0.00,,,0.02,,2013-03-16 04:43:00,
2013-03-16 00:53:00,28.0,25.0,29.87,ESE,105,8.0,13.0,88,0.00,,,0.02,,2013-03-16 04:53:00,
2013-03-16 01:02:00,28.0,25.0,29.87,SE,142,5.0,8.0,90,0.00,,,0.02,,2013-03-16 05:02:00,
2013-03-16 01:12:00,28.0,25.0,29.87,SE,142,5.0,8.0,90,0.00,,,0.02,,2013-03-16 05:12:00,
2013-03-16 01:22:00,28.0,25.0,29.86,ESE,108,3.0,11.0,90,0.00,,,0.02,,2013-03-16 05:22:00,
2013-03-16 01:32:00,28.0,25.0,29.84,East,98,6.0,8.0,90,0.00,,,0.02,,2013-03-16 05:32:00,
2013-03-16 01:42:00,28.0,25.0,29.84,East,98,6.0,8.0,90,0.00,,,0.02,,2013-03-16 05:42:00,
2013-03-16 01:53:00,28.0,26.0,29.84,East,90,4.0,7.0,91,0.00,,,0.02,,2013-03-16 05:53:00,
2013-03-16 02:02:00,27.0,25.0,29.83,East,84,7.0,13.0,91,0.00,,,0.02,,2013-03-16 06:02:00,
2013-03-16 02:12:00,27.0,25.0,29.83,East,84,7.0,13.0,91,0.00,,,0.02,,2013-03-16 06:12:00,
2013-03-16 02:22:00,27.0,25.0,29.83,East,90,8.0,11.0,91,0.00,,,0.02,,2013-03-16 06:22:00,
2013-03-16 02:32:00,27.0,25.0,29.83,ESE,109,4.0,12.0,92,0.00,,,0.02,,2013-03-16 06:32:00,
2013-03-16 02:42:00,27.0,25.0,29.83,ESE,109,4.0,12.0,92,0.00,,,0.02,,2013-03-16 06:42:00,
2013-03-16 02:52:00,27.0,25.0,29.83,ESE,106,6.0,9.0,92,0.00,,,0.02,,2013-03-16 06:52:00,
2013-03-16 03:02:00,27.0,25.0,29.83,ESE,104,4.0,9.0,91,0.00,,,0.02,,2013-03-16 07:02:00,
2013-03-16 03:12:00,27.0,25.0,29.83,ESE,104,4.0,9.0,91,0.00,,,0.02,,2013-03-16 07:12:00,
2013-03-16 03:22:00,27.0,25.0,29.83,East,93,6.0,12.0,91,0.00,,,0.02,,2013-03-16 07:22:00,
2013-03-16 03:32:00,27.0,25.0,29.82,East,94,4.0,12.0,92,0.00,,,0.02,,2013-03-16 07:32:00,
2013-03-16 03:42:00,27.0,25.0,29.82,East,94,4.0,12.0,92,0.00,,,0.02,,2013-03-16 07:42:00,
2013-03-16 03:52:00,27.0,25.0,29.81,East,86,5.0,8.0,92,0.00,,,0.02,,2013-03-16 07:52:00,
2013-03-16 04:03:00,26.0,24.0,29.80,East,82,7.0,11.0,92,0.00,,,0.02,,2013-03-16 08:03:00,
2013-03-16 04:12:00,26.0,24.0,29.80,East,82,7.0,11.0,92,0.00,,,0.02,,2013-03-16 08:12:00,
2013-03-16 04:23:00,26.0,24.0,29.81,East,81,5.0,12.0,91,0.00,,,0.02,,2013-03-16 08:23:00,
2013-03-16 04:32:00,26.0,24.0,29.81,East,101,6.0,11.0,91,0.00,,,0.02,,2013-03-16 08:32:00,
2013-03-16 04:42:00,26.0,24.0,29.81,East,101,6.0,11.0,91,0.00,,,0.02,,2013-03-16 08:42:00,
2013-03-16 04:52:00,25.0,23.0,29.80,ESE,105,9.0,13.0,91,0.00,,,0.02,,2013-03-16 08:52:00,
2013-03-16 05:02:00,25.0,23.0,29.79,ENE,72,6.0,13.0,91,0.00,,,0.02,,2013-03-16 09:02:00,
2013-03-16 05:12:00,25.0,23.0,29.79,ENE,72,6.0,13.0,91,0.00,,,0.02,,2013-03-16 09:12:00,
2013-03-16 05:22:00,25.0,23.0,29.80,East,84,2.0,7.0,92,0.00,,,0.02,,2013-03-16 09:22:00,
2013-03-16 05:33:00,25.0,23.0,29.79,ESE,104,3.0,11.0,92,0.00,,,0.02,,2013-03-16 09:33:00,
2013-03-16 05:42:00,25.0,23.0,29.79,ESE,104,3.0,11.0,92,0.00,,,0.02,,2013-03-16 09:42:00,
2013-03-16 05:53:00,25.0,23.0,29.78,East,99,2.0,8.0,93,0.00,,,0.02,,2013-03-16 09:53:00,
2013-03-16 06:03:00,25.0,23.0,29.78,East,95,7.0,12.0,92,0.00,,,0.02,,2013-03-16 10:03:00,
2013-03-16 06:12:00,25.0,23.0,29.78,East,95,7.0,12.0,92,0.00,,,0.02,,2013-03-16 10:12:00,
2013-03-16 06:23:00,25.0,23.0,29.78,East,86,2.0,11.0,92,0.00,,,0.02,,2013-03-16 10:23:00,
2013-03-16 06:32:00,25.0,23.0,29.79,East,84,7.0,12.0,92,0.00,,,0.02,,2013-03-16 10:32:00,
2013-03-16 06:42:00,25.0,23.0,29.79,East,84,7.0,12.0,92,0.00,,,0.02,,2013-03-16 10:42:00,
2013-03-16 06:53:00,25.0,23.0,29.79,ENE,73,9.0,13.0,91,0.00,,,0.02,,2013-03-16 10:53:00,
2013-03-16 07:03:00,25.0,23.0,29.80,East,90,4.0,9.0,91,0.00,,,0.02,,2013-03-16 11:03:00,
2013-03-16 07:12:00,25.0,23.0,29.80,East,90,4.0,9.0,91,0.00,,,0.02,,2013-03-16 11:12:00,
2013-03-16 07:22:00,25.0,23.0,29.80,East,94,2.0,7.0,91,0.00,,,0.02,,2013-03-16 11:22:00,
2013-03-16 07:32:00,25.0,23.0,29.81,East,99,6.0,11.0,91,0.00,,,0.02,,2013-03-16 11:32:00,
2013-03-16 07:43:00,25.0,23.0,29.81,East,99,6.0,11.0,91,0.00,,,0.02,,2013-03-16 11:43:00,
2013-03-16 07:53:00,25.0,23.0,29.83,East,86,6.0,9.0,91,0.00,,,0.02,,2013-03-16 11:53:00,
2013-03-16 08:02:00,25.0,22.0,29.83,East,83,5.0,9.0,90,0.00,,,0.02,,2013-03-16 12:02:00,
2013-03-16 08:12:00,25.0,22.0,29.83,East,83,5.0,9.0,90,0.00,,,0.02,,2013-03-16 12:12:00,
2013-03-16 08:22:00,25.0,22.0,29.84,East,86,4.0,11.0,89,0.00,,,0.02,,2013-03-16 12:22:00,
2013-03-16 08:32:00,24.0,22.0,29.83,East,99,5.0,12.0,90,0.00,,,0.02,,2013-03-16 12:32:00,
2013-03-16 08:42:00,24.0,22.0,29.83,East,99,5.0,12.0,90,0.00,,,0.02,,2013-03-16 12:42:00,
2013-03-16 08:53:00,24.0,22.0,29.84,East,99,8.0,12.0,90,0.00,,,0.02,,2013-03-16 12:53:00,
2013-03-16 09:02:00,24.0,22.0,29.84,East,100,3.0,9.0,91,0.00,,,0.02,,2013-03-16 13:02:00,
2013-03-16 09:12:00,24.0,22.0,29.84,East,100,3.0,9.0,91,0.00,,,0.02,,2013-03-16 13:12:00,
2013-03-16 09:22:00,24.0,22.0,29.85,East,99,11.0,18.0,90,0.00,,,0.02,,2013-03-16 13:22:00,
2013-03-16 09:32:00,24.0,21.0,29.87,East,89,2.0,11.0,88,0.00,,,0.02,,2013-03-16 13:32:00,
2013-03-16 09:42:00,24.0,21.0,29.87,East,89,2.0,11.0,88,0.00,,,0.02,,2013-03-16 13:42:00,
2013-03-16 09:53:00,24.0,21.0,29.85,SE,130,2.0,7.0,88,0.00,,,0.02,,2013-03-16 13:53:00,
2013-03-16 10:02:00,24.0,20.0,29.87,ESE,109,5.0,9.0,86,0.00,,,0.02,,2013-03-16 14:02:00,
2013-03-16 10:12:00,24.0,20.0,29.87,ESE,109,5.0,9.0,86,0.00,,,0.02,,2013-03-16 14:12:00,
2013-03-16 10:22:00,24.0,20.0,29.87,ESE,115,5.0,7.0,85,0.00,,,0.02,,2013-03-16 14:22:00,
2013-03-16 10:32:00,24.0,20.0,29.86,ENE,76,6.0,9.0,85,0.00,,,0.02,,2013-03-16 14:32:00,
2013-03-16 10:42:00,24.0,20.0,29.86,ENE,76,6.0,9.0,85,0.00,,,0.02,,2013-03-16 14:42:00,
2013-03-16 10:52:00,24.0,20.0,29.87,East,88,5.0,8.0,84,0.00,,,0.02,,2013-03-16 14:52:00,
2013-03-16 11:03:00,24.0,20.0,29.87,ESE,117,4.0,8.0,84,0.00,,,0.02,,2013-03-16 15:03:00,
2013-03-16 11:13:00,24.0,20.0,29.87,ESE,117,4.0,8.0,84,0.00,,,0.02,,2013-03-16 15:13:00,
2013-03-16 11:23:00,25.0,21.0,29.88,ESE,103,4.0,6.0,84,0.00,,,0.02,,2013-03-16 15:23:00,
2013-03-16 11:33:00,25.0,20.0,29.88,East,90,6.0,8.0,82,0.00,,,0.02,,2013-03-16 15:33:00,
2013-03-16 11:43:00,25.0,20.0,29.88,East,90,6.0,8.0,82,0.00,,,0.02,,2013-03-16 15:43:00,
2013-03-16 11:53:00,25.0,21.0,29.88,ENE,63,2.0,13.0,83,0.00,,,0.02,,2013-03-16 15:53:00,
2013-03-16 12:03:00,26.0,21.0,29.89,East,84,2.0,8.0,82,0.00,,,0.02,,2013-03-16 16:03:00,
2013-03-16 12:12:00,26.0,21.0,29.89,East,84,2.0,8.0,82,0.00,,,0.02,,2013-03-16 16:12:00,
2013-03-16 12:23:00,27.0,22.0,29.90,ESE,112,6.0,7.0,81,0.00,,,0.02,,2013-03-16 16:23:00,
2013-03-16 12:33:00,27.0,22.0,29.91,ESE,123,4.0,7.0,81,0.00,,,0.02,,2013-03-16 16:33:00,
2013-03-16 12:42:00,27.0,22.0,29.91,ESE,123,4.0,7.0,81,0.00,,,0.02,,2013-03-16 16:42:00,
2013-03-16 12:53:00,28.0,22.0,29.91,East,80,4.0,9.0,79,0.00,,,0.02,,2013-03-16 16:53:00,
2013-03-16 13:03:00,28.0,21.0,29.92,East,97,3.0,8.0,76,0.00,,,0.02,,2013-03-16 17:03:00,
2013-03-16 13:13:00,28.0,21.0,29.92,East,97,3.0,8.0,76,0.00,,,0.02,,2013-03-16 17:13:00,
2013-03-16 13:23:00,29.0,23.0,29.92,East,92,2.0,4.0,77,0.00,,,0.02,,2013-03-16 17:23:00,
2013-03-16 13:32:00,30.0,22.0,29.93,East,100,2.0,7.0,72,0.02,,,0.04,,2013-03-16 17:32:00,
2013-03-16 13:42:00,30.0,22.0,29.93,East,100,2.0,7.0,72,0.02,,,0.04,,2013-03-16 17:42:00,
2013-03-16 13:53:00,31.0,23.0,29.93,NNE,32,2.0,6.0,73,0.04,,,0.06,,2013-03-16 17:53:00,
2013-03-16 14:02:00,31.0,23.0,29.93,NE,47,2.0,9.0,73,0.06,,,0.08,,2013-03-16 18:02:00,
2013-03-16 14:13:00,31.0,23.0,29.93,NE,47,2.0,9.0,73,0.06,,,0.08,,2013-03-16 18:13:00,
2013-03-16 14:23:00,31.0,23.0,29.93,NNE,22,2.0,7.0,72,0.07,,,0.09,,2013-03-16 18:23:00,
2013-03-16 14:33:00,32.0,24.0,29.93,NE,55,2.0,8.0,71,0.06,,,0.10,,2013-03-16 18:33:00,
2013-03-16 14:43:00,32.0,24.0,29.93,NE,55,2.0,8.0,71,0.06,,,0.10,,2013-03-16 18:43:00,
2013-03-16 14:53:00,33.0,25.0,29.93,NE,45,1.0,7.0,71,0.04,,,0.10,,2013-03-16 18:53:00,
2013-03-16 15:02:00,33.0,23.0,29.93,ENE,57,4.0,10.0,67,0.03,,,0.11,,2013-03-16 19:02:00,
2013-03-16 15:12:00,33.0,23.0,29.93,ENE,57,4.0,10.0,67,0.03,,,0.11,,2013-03-16 19:12:00,
2013-03-16 15:22:00,33.0,23.0,29.93,ENE,76,8.0,12.0,66,0.02,,,0.11,,2013-03-16 19:22:00,
2013-03-16 15:32:00,34.0,24.0,29.92,WNW,295,3.0,9.0,66,0.02,,,0.12,,2013-03-16 19:32:00,
2013-03-16 15:42:00,34.0,24.0,29.92,WNW,295,3.0,9.0,66,0.02,,,0.12,,2013-03-16 19:42:00,
2013-03-16 15:53:00,34.0,23.0,29.92,NNE,22,5.0,9.0,64,0.02,,,0.12,,2013-03-16 19:53:00,
2013-03-16 16:02:00,34.0,22.0,29.92,North,350,5.0,9.0,60,0.01,,,0.12,,2013-03-16 20:02:00,
2013-03-16 16:12:00,34.0,22.0,29.92,North,350,5.0,9.0,60,0.01,,,0.12,,2013-03-16 20:12:00,
2013-03-16 16:22:00,34.0,22.0,29.92,NE,48,2.0,10.0,61,0.01,,,0.12,,2013-03-16 20:22:00,
2013-03-16 16:42:00,34.0,21.0,29.92,North,355,1.0,9.0,59,0.00,,,0.12,,2013-03-16 20:42:00,
2013-03-16 16:52:00,34.0,22.0,29.92,NW,319,4.0,8.0,60,0.00,,,0.12,,2013-03-16 20:52:00,
2013-03-16 17:02:00,35.0,22.0,29.93,NE,49,6.0,10.0,58,0.00,,,0.12,,2013-03-16 21:02:00,
2013-03-16 17:12:00,35.0,22.0,29.93,NE,49,6.0,10.0,58,0.00,,,0.12,,2013-03-16 21:12:00,
2013-03-16 17:22:00,34.0,20.0,29.93,NE,49,2.0,8.0,57,0.00,,,0.12,,2013-03-16 21:22:00,
2013-03-16 17:33:00,34.0,19.0,29.93,NNW,343,3.0,9.0,54,0.00,,,0.12,,2013-03-16 21:33:00,
2013-03-16 17:43:00,34.0,19.0,29.93,NNW,343,3.0,9.0,54,0.00,,,0.12,,2013-03-16 21:43:00,
2013-03-16 17:53:00,34.0,19.0,29.94,NNW,337,5.0,9.0,54,0.00,,,0.12,,2013-03-16 21:53:00,
2013-03-16 18:03:00,34.0,20.0,29.95,NE,45,3.0,10.0,56,0.00,,,0.11,,2013-03-16 22:03:00,
2013-03-16 18:13:00,34.0,20.0,29.95,NE,45,3.0,10.0,56,0.00,,,0.11,,2013-03-16 22:13:00,
2013-03-16 18:23:00,34.0,20.0,29.95,North,355,3.0,7.0,57,0.00,,,0.11,,2013-03-16 22:23:00,
2013-03-16 18:33:00,33.0,19.0,29.95,NNW,336,2.0,10.0,55,0.00,,,0.11,,2013-03-16 22:33:00,
2013-03-16 18:42:00,33.0,19.0,29.95,NNW,336,2.0,10.0,55,0.00,,,0.11,,2013-03-16 22:42:00,
2013-03-16 18:53:00,33.0,19.0,29.96,ENE,65,0.0,7.0,55,0.00,,,0.11,,2013-03-16 22:53:00,
2013-03-16 19:02:00,32.0,19.0,29.96,North,355,4.0,8.0,57,0.00,,,0.10,,2013-03-16 23:02:00,
2013-03-16 19:13:00,32.0,19.0,29.96,North,355,4.0,8.0,57,0.00,,,0.10,,2013-03-16 23:13:00,
2013-03-16 19:23:00,32.0,19.0,29.96,North,350,1.0,5.0,59,0.00,,,0.10,,2013-03-16 23:23:00,
2013-03-16 19:33:00,31.0,18.0,29.96,NNW,343,5.0,8.0,59,0.00,,,0.10,,2013-03-16 23:33:00,
2013-03-16 19:42:00,31.0,18.0,29.96,NNW,343,5.0,8.0,59,0.00,,,0.10,,2013-03-16 23:42:00,
2013-03-16 19:53:00,30.0,18.0,29.97,NW,316,4.0,6.0,60,0.00,,,0.10,,2013-03-16 23:53:00,
2013-03-16 20:02:00,29.0,18.0,29.97,NNE,13,0.0,8.0,62,0.00,,,0.10,,2013-03-17 00:02:00,
2013-03-16 20:12:00,29.0,18.0,29.97,NNE,13,0.0,8.0,62,0.00,,,0.10,,2013-03-17 00:12:00,
2013-03-16 20:22:00,29.0,19.0,29.98,North,5,1.0,5.0,65,0.00,,,0.10,,2013-03-17 00:22:00,
2013-03-16 20:33:00,28.0,18.0,29.99,North,360,0.0,7.0,67,0.00,,,0.10,,2013-03-17 00:33:00,
2013-03-16 20:42:00,28.0,18.0,29.99,North,360,0.0,7.0,67,0.00,,,0.10,,2013-03-17 00:42:00,
2013-03-16 20:52:00,27.0,18.0,30.00,NW,319,1.0,5.0,68,0.00,,,0.10,,2013-03-17 00:52:00,
2013-03-16 21:02:00,27.0,18.0,30.00,NNW,329,1.0,5.0,68,0.00,,,0.10,,2013-03-17 01:02:00,
2013-03-16 21:12:00,27.0,18.0,30.00,NNW,329,1.0,5.0,68,0.00,,,0.10,,2013-03-17 01:12:00,
2013-03-16 21:22:00,26.0,17.0,30.01,North,5,0.0,5.0,69,0.00,,,0.10,,2013-03-17 01:22:00,
2013-03-16 21:32:00,26.0,17.0,30.01,NNW,336,0.0,3.0,69,0.00,,,0.10,,2013-03-17 01:32:00,
2013-03-16 21:42:00,26.0,17.0,30.01,NNW,336,0.0,3.0,69,0.00,,,0.10,,2013-03-17 01:42:00,
2013-03-16 21:53:00,26.0,18.0,30.01,NNW,338,2.0,5.0,70,0.00,,,0.10,,2013-03-17 01:53:00,
2013-03-16 22:03:00,26.0,18.0,30.02,NNW,338,3.0,7.0,70,0.00,,,0.10,,2013-03-17 02:03:00,
2013-03-16 22:13:00,26.0,18.0,30.02,NNW,338,3.0,7.0,70,0.00,,,0.10,,2013-03-17 02:13:00,
2013-03-16 22:22:00,26.0,18.0,30.03,NE,48,0.0,6.0,70,0.00,,,0.10,,2013-03-17 02:22:00,
2013-03-16 22:33:00,26.0,18.0,30.03,North,5,0.0,8.0,71,0.00,,,0.10,,2013-03-17 02:33:00,
2013-03-16 22:43:00,26.0,18.0,30.03,North,5,0.0,8.0,71,0.00,,,0.10,,2013-03-17 02:43:00,
2013-03-16 22:53:00,27.0,19.0,30.05,NE,39,2.0,4.0,72,0.00,,,0.10,,2013-03-17 02:53:00,
2013-03-16 23:03:00,27.0,19.0,30.05,NE,55,2.0,7.0,72,0.00,,,0.10,,2013-03-17 03:03:00,
2013-03-16 23:12:00,27.0,19.0,30.05,NE,55,2.0,7.0,72,0.00,,,0.10,,2013-03-17 03:12:00,
2013-03-16 23:23:00,27.0,20.0,30.06,WNW,294,0.0,3.0,73,0.00,,,0.10,,2013-03-17 03:23:00,
2013-03-16 23:33:00,27.0,20.0,30.06,NNE,15,2.0,8.0,76,0.00,,,0.10,,2013-03-17 03:33:00,
2013-03-16 23:43:00,27.0,20.0,30.06,NNE,15,2.0,8.0,76,0.00,,,0.10,,2013-03-17 03:43:00,
2013-03-16 23:53:00,26.0,18.0,30.07,WNW,297,2.0,5.0,71,0.00,,,0.10,,2013-03-17 03:53:00,